createdAt,value
2022-09-09T00:00:17.983Z,5.00
2022-09-09T00:02:58.244Z,4.10
2022-09-09T00:05:51.279Z,4.50
2022-09-09T00:08:23.800Z,4.55
2022-09-09T00:10:59.973Z,3.27
2022-09-09T00:13:38.493Z,3.97
2022-09-09T00:16:26.374Z,3.55
2022-09-09T00:19:19.030Z,2.80
2022-09-09T00:22:21.129Z,2.92
2022-09-09T00:25:02.317Z,2.90
2022-09-09T00:27:38.273Z,3.17
2022-09-09T00:30:23.552Z,2.70
2022-09-09T00:32:58.867Z,4.45
2022-09-09T00:35:38.046Z,3.67
2022-09-09T00:38:16.732Z,3.95
2022-09-09T00:41:10.223Z,3.92
2022-09-09T00:43:41.475Z,3.80
2022-09-09T00:46:39.385Z,3.28
2022-09-09T00:49:35.355Z,3.80
2022-09-09T00:52:19.371Z,3.60
2022-09-09T00:55:08.642Z,2.65
2022-09-09T00:57:38.835Z,4.22
2022-09-09T01:00:30.949Z,4.50
2022-09-09T01:03:09.740Z,3.60
2022-09-09T01:05:43.358Z,3.53
2022-09-09T01:08:29.186Z,3.90
2022-09-09T01:11:00.342Z,3.88
2022-09-09T01:16:09.077Z,3.63
2022-09-09T01:18:45.843Z,3.95
2022-09-09T01:21:45.617Z,3.03
2022-09-09T01:24:31.354Z,3.20
2022-09-09T01:27:08.789Z,4.63
2022-09-09T01:29:38.085Z,3.15
2022-09-09T01:32:45.061Z,3.75
2022-09-09T01:35:26.687Z,3.58
2022-09-09T01:37:54.925Z,3.80
2022-09-09T01:40:23.416Z,3.55
2022-09-09T01:42:52.998Z,3.60
2022-09-09T01:45:22.645Z,4.10
2022-09-09T01:47:54.707Z,3.72
2022-09-09T01:50:54.891Z,4.03
2022-09-09T01:53:24.813Z,3.95
2022-09-09T01:56:19.048Z,3.92
2022-09-09T01:59:09.710Z,4.25
2022-09-09T02:02:22.757Z,3.83
2022-09-09T02:05:18.694Z,3.75
2022-09-09T02:07:52.553Z,4.07
2022-09-09T02:10:58.160Z,3.72
2022-09-09T02:13:39.417Z,4.18
2022-09-09T02:16:20.355Z,3.75
2022-09-09T02:18:51.351Z,3.72
2022-09-09T02:21:25.001Z,3.90
2022-09-09T02:23:57.178Z,4.13
2022-09-09T02:26:26.528Z,4.03
2022-09-09T02:29:06.046Z,4.72
2022-09-09T02:31:36.825Z,4.25
2022-09-09T02:34:12.877Z,5.03
2022-09-09T02:36:44.779Z,4.32
2022-09-09T02:39:13.439Z,5.15
2022-09-09T02:41:43.746Z,4.75
2022-09-09T02:44:14.976Z,4.18
2022-09-09T02:47:01.702Z,4.53
2022-09-09T02:49:32.807Z,4.57
2022-09-09T02:52:08.758Z,4.40
2022-09-09T02:54:42.584Z,4.47
2022-09-09T02:57:19.263Z,3.88
2022-09-09T02:59:50.899Z,5.20
2022-09-09T03:02:19.814Z,3.90
2022-09-09T03:04:52.947Z,4.68
2022-09-09T03:07:22.771Z,4.10
2022-09-09T03:09:55.207Z,5.10
2022-09-09T03:12:26.554Z,4.47
2022-09-09T03:14:54.858Z,4.60
2022-09-09T03:17:23.179Z,4.50
2022-09-09T03:19:57.234Z,4.90
2022-09-09T03:22:26.362Z,4.97
2022-09-09T03:24:56.033Z,4.47
2022-09-09T03:27:24.605Z,4.70
2022-09-09T03:29:53.834Z,6.32
2022-09-09T03:32:27.165Z,4.43
2022-09-09T03:34:57.067Z,5.00
2022-09-09T03:37:25.920Z,4.75
2022-09-09T03:39:57.441Z,4.82
2022-09-09T03:42:25.968Z,4.15
2022-09-09T03:44:58.802Z,4.28
2022-09-09T03:47:27.327Z,5.05
2022-09-09T03:50:01.637Z,4.45
2022-09-09T03:52:31.727Z,5.13
2022-09-09T03:55:00.029Z,5.25
2022-09-09T03:57:28.174Z,5.25
2022-09-09T03:59:56.518Z,4.93
2022-09-09T04:02:25.427Z,5.50
2022-09-09T04:04:53.533Z,5.50
2022-09-09T04:07:22.487Z,5.20
2022-09-09T04:09:50.718Z,5.57
2022-09-09T04:12:19.134Z,5.85
2022-09-09T04:14:47.463Z,5.40
2022-09-09T04:17:15.732Z,5.43
2022-09-09T04:19:43.942Z,5.88
2022-09-09T04:22:12.529Z,5.57
2022-09-09T04:24:40.691Z,5.72
2022-09-09T04:27:09.333Z,5.97
2022-09-09T04:29:39.179Z,6.30
2022-09-09T04:32:07.649Z,5.50
2022-09-09T04:34:35.817Z,6.25
2022-09-09T04:37:04.079Z,5.38
2022-09-09T04:39:32.497Z,5.32
2022-09-09T04:42:03.015Z,5.65
2022-09-09T04:44:31.439Z,5.00
2022-09-09T04:47:01.015Z,5.28
2022-09-09T04:49:29.361Z,5.45
2022-09-09T04:51:57.452Z,5.95
2022-09-09T04:54:26.392Z,5.70
2022-09-09T04:56:54.795Z,6.70
2022-09-09T04:59:23.504Z,5.72
2022-09-09T05:01:58.457Z,5.97
2022-09-09T05:04:26.544Z,5.75
2022-09-09T05:06:54.810Z,5.45
2022-09-09T05:09:22.956Z,4.97
2022-09-09T05:11:52.388Z,5.15
2022-09-09T05:14:28.940Z,4.63
2022-09-09T05:16:57.207Z,4.90
2022-09-09T05:19:26.178Z,5.38
2022-09-09T05:21:55.454Z,5.53
2022-09-09T05:24:30.421Z,5.38
2022-09-09T05:27:02.663Z,5.40
2022-09-09T05:29:31.004Z,5.63
2022-09-09T05:32:02.194Z,6.05
2022-09-09T05:34:30.293Z,6.65
2022-09-09T05:36:59.342Z,4.85
2022-09-09T05:39:28.005Z,6.38
2022-09-09T05:41:56.577Z,5.55
2022-09-09T05:44:28.538Z,5.47
2022-09-09T05:46:56.918Z,5.40
2022-09-09T05:49:25.497Z,5.72
2022-09-09T05:51:53.995Z,6.35
2022-09-09T05:54:23.100Z,5.47
2022-09-09T05:56:54.640Z,6.57
2022-09-09T05:59:24.651Z,6.32
2022-09-09T06:01:55.372Z,5.35
2022-09-09T06:04:29.113Z,5.68
2022-09-09T06:06:57.162Z,5.22
2022-09-09T06:09:25.344Z,5.28
2022-09-09T06:11:53.595Z,6.82
2022-09-09T06:14:23.566Z,6.43
2022-09-09T06:16:53.635Z,6.20
2022-09-09T06:19:28.271Z,5.38
2022-09-09T06:22:02.258Z,4.85
2022-09-09T06:24:33.962Z,6.00
2022-09-09T06:27:03.897Z,5.00
2022-09-09T06:29:35.670Z,5.60
2022-09-09T06:32:05.859Z,5.45
2022-09-09T06:34:36.551Z,4.88
2022-09-09T06:37:05.619Z,4.63
2022-09-09T06:39:39.815Z,5.43
2022-09-09T06:42:09.886Z,4.25
2022-09-09T06:44:56.451Z,4.30
2022-09-09T06:47:44.937Z,3.65
2022-09-09T06:50:13.245Z,4.20
2022-09-09T06:52:41.503Z,4.43
2022-09-09T06:55:11.309Z,4.10
2022-09-09T06:57:39.984Z,3.95
2022-09-09T07:00:15.106Z,4.45
2022-09-09T07:02:43.519Z,4.72
2022-09-09T07:05:13.866Z,5.43
2022-09-09T07:07:48.616Z,4.95
2022-09-09T07:10:20.138Z,4.70
2022-09-09T07:12:53.947Z,4.55
2022-09-09T07:15:24.244Z,4.15
2022-09-09T07:17:54.081Z,3.88
2022-09-09T07:20:22.486Z,3.53
2022-09-09T07:22:51.458Z,3.30
2022-09-09T07:25:19.610Z,2.70
2022-09-09T07:27:48.417Z,2.80
2022-09-09T07:30:22.931Z,2.65
2022-09-09T07:32:54.365Z,2.63
2022-09-09T07:35:22.843Z,3.13
2022-09-09T07:37:51.317Z,2.70
2022-09-09T07:40:22.820Z,2.55
2022-09-09T07:42:51.484Z,3.20
2022-09-09T07:45:19.739Z,2.35
2022-09-09T07:47:49.861Z,2.40
2022-09-09T07:50:18.615Z,2.90
2022-09-09T07:52:46.851Z,2.38
2022-09-09T07:55:16.038Z,2.80
2022-09-09T07:57:44.439Z,3.22
2022-09-09T08:00:15.824Z,2.90
2022-09-09T08:02:48.037Z,2.67
2022-09-09T08:05:17.697Z,2.60
2022-09-09T08:07:46.891Z,2.80
2022-09-09T08:10:16.993Z,2.80
2022-09-09T08:13:01.531Z,3.28
2022-09-09T08:15:35.604Z,2.90
2022-09-09T08:18:05.377Z,2.83
2022-09-09T08:20:33.508Z,2.65
2022-09-09T08:23:03.135Z,2.88
2022-09-09T08:25:31.236Z,2.95
2022-09-09T08:27:59.987Z,3.22
2022-09-09T08:30:28.578Z,2.50
2022-09-09T08:32:56.809Z,2.78
2022-09-09T08:35:25.134Z,3.53
2022-09-09T08:37:56.147Z,3.55
2022-09-09T08:40:31.006Z,2.80
2022-09-09T08:43:03.939Z,2.67
2022-09-09T08:46:12.604Z,2.88
2022-09-09T08:48:53.361Z,2.65
2022-09-09T08:51:22.290Z,2.38
2022-09-09T08:53:59.049Z,2.47
2022-09-09T08:56:32.317Z,2.78
2022-09-09T08:59:05.329Z,3.08
2022-09-09T09:02:11.390Z,3.15
2022-09-09T09:04:53.059Z,2.78
2022-09-09T09:07:35.494Z,3.00
2022-09-09T09:10:42.106Z,2.80
2022-09-09T09:13:16.948Z,2.50
2022-09-09T09:15:54.116Z,2.60
2022-09-09T09:18:22.822Z,3.05
2022-09-09T09:21:07.208Z,2.70
2022-09-09T09:23:49.820Z,2.70
2022-09-09T09:26:19.044Z,2.80
2022-09-09T09:28:48.151Z,2.88
2022-09-09T09:31:21.078Z,3.00
2022-09-09T09:33:51.714Z,3.03
2022-09-09T09:36:26.781Z,2.78
2022-09-09T09:41:46.749Z,2.60
2022-09-09T09:44:31.046Z,2.85
2022-09-09T09:47:24.341Z,3.50
2022-09-09T09:50:21.750Z,2.67
2022-09-09T09:53:08.028Z,3.30
2022-09-09T09:55:54.799Z,3.03
2022-09-09T09:58:25.987Z,3.90
2022-09-09T10:00:55.400Z,2.00
2022-09-09T10:03:29.249Z,1.67
2022-09-09T10:05:59.118Z,2.17
2022-09-09T10:08:28.520Z,2.28
2022-09-09T10:11:02.186Z,3.00
2022-09-09T10:13:34.019Z,3.80
2022-09-09T10:16:17.190Z,4.82
2022-09-09T10:19:02.102Z,5.03
2022-09-09T10:21:35.699Z,4.28
2022-09-09T10:24:15.475Z,3.08
2022-09-09T10:26:46.556Z,2.90
2022-09-09T10:29:45.501Z,2.00
2022-09-09T10:32:52.218Z,2.60
2022-09-09T10:35:40.721Z,1.90
2022-09-09T10:38:22.129Z,2.28
2022-09-09T10:40:59.468Z,2.20
2022-09-09T10:44:00.140Z,2.20
2022-09-09T10:46:32.053Z,2.20
2022-09-09T10:49:23.031Z,2.33
2022-09-09T10:52:03.917Z,3.15
2022-09-09T10:54:32.050Z,2.67
2022-09-09T10:57:25.151Z,2.00
2022-09-09T11:00:00.794Z,2.50
2022-09-09T11:02:30.945Z,2.30
2022-09-09T11:05:07.920Z,2.90
2022-09-09T11:08:07.222Z,3.00
2022-09-09T11:10:46.542Z,2.20
2022-09-09T11:13:40.798Z,2.20
2022-09-09T11:16:11.582Z,2.10
2022-09-09T11:18:44.088Z,1.65
2022-09-09T11:21:25.748Z,2.30
2022-09-09T11:24:14.263Z,1.73
2022-09-09T11:26:59.700Z,2.08
2022-09-09T11:29:45.150Z,1.60
2022-09-09T11:32:28.112Z,1.80
2022-09-09T11:35:21.935Z,1.70
2022-09-09T11:40:29.388Z,1.85
2022-09-09T11:43:24.847Z,1.83
2022-09-09T11:46:00.245Z,1.60
2022-09-09T11:48:46.722Z,1.73
2022-09-09T11:51:31.555Z,1.30
2022-09-09T11:54:02.300Z,1.60
2022-09-09T11:56:35.171Z,1.73
2022-09-09T11:59:20.301Z,2.03
2022-09-09T12:01:57.370Z,1.55
2022-09-09T12:04:26.489Z,1.98
2022-09-09T12:07:01.398Z,1.60
2022-09-09T12:09:57.608Z,1.25
2022-09-09T12:12:28.415Z,1.40
2022-09-09T12:15:08.456Z,1.98
2022-09-09T12:17:47.649Z,1.58
2022-09-09T12:20:20.562Z,1.38
2022-09-09T12:22:51.630Z,1.40
2022-09-09T12:25:55.587Z,1.35
2022-09-09T12:31:11.258Z,1.25
2022-09-09T12:33:44.304Z,1.08
2022-09-09T12:36:24.288Z,1.02
2022-09-09T12:38:55.656Z,1.20
2022-09-09T12:41:26.188Z,1.27
2022-09-09T12:44:07.012Z,1.10
2022-09-09T12:46:42.692Z,1.10
2022-09-09T12:49:40.510Z,1.20
2022-09-09T12:52:16.347Z,1.17
2022-09-09T12:54:52.918Z,1.35
2022-09-09T12:57:25.715Z,1.40
2022-09-09T13:00:07.521Z,1.27
2022-09-09T13:02:35.937Z,1.25
2022-09-09T13:05:25.547Z,1.40
2022-09-09T13:08:03.397Z,1.50
2022-09-09T13:10:52.412Z,1.00
2022-09-09T13:13:28.091Z,1.38
2022-09-09T13:16:02.788Z,1.10
2022-09-09T13:18:36.535Z,1.38
2022-09-09T13:21:05.220Z,1.10
2022-09-09T13:23:36.274Z,1.15
2022-09-09T13:26:28.067Z,0.90
2022-09-09T13:29:08.144Z,1.02
2022-09-09T13:31:38.634Z,1.30
2022-09-09T13:34:28.805Z,1.60
2022-09-09T13:37:06.872Z,1.23
2022-09-09T13:39:38.975Z,1.60
2022-09-09T13:42:23.531Z,1.40
2022-09-09T13:44:51.823Z,1.40
2022-09-09T13:47:33.136Z,1.48
2022-09-09T13:50:27.245Z,1.15
2022-09-09T13:52:59.252Z,1.83
2022-09-09T13:55:29.558Z,1.52
2022-09-09T13:58:03.880Z,1.80
2022-09-09T14:00:34.511Z,1.98
2022-09-09T14:03:03.169Z,1.88
2022-09-09T14:05:34.820Z,1.60
2022-09-09T14:08:05.970Z,1.80
2022-09-09T14:10:36.835Z,1.80
2022-09-09T14:13:05.327Z,1.88
2022-09-09T14:15:33.427Z,1.83
2022-09-09T14:18:01.500Z,1.92
2022-09-09T14:20:29.634Z,1.67
2022-09-09T14:23:02.855Z,2.13
2022-09-09T14:25:32.317Z,1.88
2022-09-09T14:28:00.622Z,1.83
2022-09-09T14:30:28.832Z,2.30
2022-09-09T14:32:56.874Z,1.92
2022-09-09T14:35:25.645Z,2.25
2022-09-09T14:37:53.777Z,1.98
2022-09-09T14:40:22.535Z,1.80
2022-09-09T14:42:50.694Z,1.83
2022-09-09T14:45:18.746Z,1.75
2022-09-09T14:47:46.785Z,1.63
2022-09-09T14:50:15.162Z,1.80
2022-09-09T14:52:43.257Z,1.83
2022-09-09T14:55:12.174Z,2.20
2022-09-09T14:57:41.258Z,2.08
2022-09-09T15:00:12.223Z,1.67
2022-09-09T15:02:43.413Z,1.90
2022-09-09T15:05:11.901Z,2.00
2022-09-09T15:07:40.586Z,2.10
2022-09-09T15:10:12.137Z,2.50
2022-09-09T15:12:40.227Z,2.13
2022-09-09T15:15:08.669Z,1.65
2022-09-09T15:17:37.068Z,2.22
2022-09-09T15:20:06.860Z,2.13
2022-09-09T15:22:35.124Z,1.75
2022-09-09T15:25:03.485Z,1.55
2022-09-09T15:27:32.395Z,1.73
2022-09-09T15:30:01.895Z,1.77
2022-09-09T15:32:30.391Z,1.48
2022-09-09T15:34:58.539Z,1.70
2022-09-09T15:37:26.671Z,1.80
2022-09-09T15:39:54.844Z,1.88
2022-09-09T15:42:23.010Z,1.95
2022-09-09T15:44:51.094Z,2.00
2022-09-09T15:47:19.163Z,1.50
2022-09-09T15:49:47.208Z,1.30
2022-09-09T15:52:15.294Z,1.55
2022-09-09T15:54:44.097Z,1.70
2022-09-09T15:57:14.104Z,1.70
2022-09-09T15:59:42.319Z,1.60
2022-09-09T16:02:11.355Z,2.38
2022-09-09T16:04:39.605Z,1.63
2022-09-09T16:07:08.107Z,1.50
2022-09-09T16:09:37.258Z,1.65
2022-09-09T16:12:10.808Z,1.60
2022-09-09T16:14:39.856Z,1.70
2022-09-09T16:17:08.533Z,1.35
2022-09-09T16:19:36.826Z,1.73
2022-09-09T16:22:07.420Z,1.45
2022-09-09T16:24:35.548Z,1.45
2022-09-09T16:27:03.836Z,1.50
2022-09-09T16:29:33.109Z,1.60
2022-09-09T16:32:03.912Z,1.50
2022-09-09T16:34:34.573Z,2.53
2022-09-09T16:37:03.107Z,1.55
2022-09-09T16:39:31.707Z,1.63
2022-09-09T16:42:00.797Z,3.20
2022-09-09T16:44:28.958Z,2.80
2022-09-09T16:47:00.692Z,2.33
2022-09-09T16:49:32.125Z,1.77
2022-09-09T16:52:01.002Z,1.63
2022-09-09T16:54:30.035Z,1.92
2022-09-09T16:56:59.874Z,1.80
2022-09-09T16:59:28.055Z,1.73
2022-09-09T17:01:56.336Z,1.77
2022-09-09T17:04:27.534Z,1.52
2022-09-09T17:06:58.236Z,3.15
2022-09-09T17:09:30.219Z,2.17
2022-09-09T17:11:59.430Z,1.40
2022-09-09T17:14:27.797Z,1.58
2022-09-09T17:16:55.932Z,2.55
2022-09-09T17:19:23.963Z,2.00
2022-09-09T17:22:15.444Z,1.55
2022-09-09T17:24:41.355Z,1.90
2022-09-09T17:27:09.959Z,1.70
2022-09-09T17:29:38.570Z,1.55
2022-09-09T17:32:08.194Z,1.90
2022-09-09T17:34:37.222Z,1.75
2022-09-09T17:37:08.116Z,1.98
2022-09-09T17:39:36.716Z,1.67
2022-09-09T17:42:04.992Z,2.03
2022-09-09T17:44:33.373Z,1.70
2022-09-09T17:47:05.055Z,1.95
2022-09-09T17:49:33.305Z,2.20
2022-09-09T17:52:01.454Z,2.10
2022-09-09T17:54:29.567Z,1.98
2022-09-09T17:56:59.280Z,2.00
2022-09-09T17:59:27.472Z,1.95
2022-09-09T18:01:55.930Z,1.98
2022-09-09T18:04:24.135Z,2.28
2022-09-09T18:06:54.198Z,1.85
2022-09-09T18:09:25.655Z,1.80
2022-09-09T18:11:56.593Z,1.73
2022-09-09T18:14:31.188Z,2.30
2022-09-09T18:17:00.935Z,2.00
2022-09-09T18:19:30.887Z,2.65
2022-09-09T18:22:02.368Z,2.60
2022-09-09T18:24:31.127Z,3.08
2022-09-09T18:26:59.426Z,4.00
2022-09-09T18:29:27.828Z,4.50
2022-09-09T18:31:56.287Z,3.38
2022-09-09T18:34:28.837Z,2.42
2022-09-09T18:36:57.515Z,2.60
2022-09-09T18:39:28.391Z,2.30
2022-09-09T18:42:01.434Z,2.38
2022-09-09T18:44:35.306Z,1.90
2022-09-09T18:47:03.814Z,2.00
2022-09-09T18:49:33.269Z,2.33
2022-09-09T18:52:02.795Z,2.65
2022-09-09T18:54:33.343Z,2.00
2022-09-09T18:57:04.559Z,2.00
2022-09-09T18:59:32.696Z,1.98
2022-09-09T19:02:01.273Z,2.80
2022-09-09T19:04:31.714Z,2.60
2022-09-09T19:07:00.231Z,2.28
2022-09-09T19:09:31.687Z,1.83
2022-09-09T19:12:06.379Z,2.03
2022-09-09T19:14:34.715Z,3.00
2022-09-09T19:17:03.310Z,2.80
2022-09-09T19:19:33.213Z,2.30
2022-09-09T19:22:02.417Z,2.17
2022-09-09T19:24:32.882Z,2.00
2022-09-09T19:27:07.866Z,2.55
2022-09-09T19:29:39.518Z,2.40
2022-09-09T19:34:55.938Z,2.20
2022-09-09T19:37:24.139Z,2.50
2022-09-09T19:39:52.432Z,3.05
2022-09-09T19:42:20.918Z,2.80
2022-09-09T19:44:50.151Z,2.83
2022-09-09T19:47:19.478Z,3.03
2022-09-09T19:49:47.920Z,2.63
2022-09-09T19:52:17.484Z,4.35
2022-09-09T19:54:48.492Z,2.83
2022-09-09T19:57:16.625Z,2.80
2022-09-09T19:59:44.815Z,3.10
2022-09-09T20:02:15.725Z,2.45
2022-09-09T20:04:44.769Z,2.70
2022-09-09T20:07:13.296Z,2.28
2022-09-09T20:09:41.437Z,2.13
2022-09-09T20:12:11.312Z,2.17
2022-09-09T20:14:40.255Z,2.40
2022-09-09T20:17:10.075Z,2.20
2022-09-09T20:19:39.837Z,2.65
2022-09-09T20:22:08.159Z,2.63
2022-09-09T20:24:37.023Z,2.50
2022-09-09T20:27:07.016Z,2.83
2022-09-09T20:29:36.145Z,2.53
2022-09-09T20:32:05.876Z,2.22
2022-09-09T20:34:34.541Z,2.30
2022-09-09T20:37:02.821Z,3.00
2022-09-09T20:39:31.071Z,2.22
2022-09-09T20:41:59.110Z,2.78
2022-09-09T20:44:27.804Z,2.53
2022-09-09T20:47:00.484Z,2.50
2022-09-09T20:49:31.741Z,3.15
2022-09-09T20:51:59.834Z,2.17
2022-09-09T20:54:30.571Z,2.25
2022-09-09T20:57:00.386Z,2.70
2022-09-09T20:59:30.967Z,2.35
2022-09-09T21:02:01.040Z,2.38
2022-09-09T21:04:29.422Z,2.08
2022-09-09T21:06:58.841Z,1.83
2022-09-09T21:09:27.003Z,2.17
2022-09-09T21:11:55.197Z,2.25
2022-09-09T21:14:23.722Z,1.98
2022-09-09T21:16:51.813Z,2.30
2022-09-09T21:19:20.040Z,2.35
2022-09-09T21:21:49.088Z,2.00
2022-09-09T21:24:17.318Z,2.40
2022-09-09T21:26:49.429Z,2.25
2022-09-09T21:29:17.516Z,2.50
2022-09-09T21:31:45.608Z,2.58
2022-09-09T21:34:15.371Z,2.33
2022-09-09T21:36:43.566Z,2.35
2022-09-09T21:39:11.706Z,2.90
2022-09-09T21:41:40.174Z,3.80
2022-09-09T21:44:09.328Z,3.75
2022-09-09T21:46:37.543Z,3.47
2022-09-09T21:49:05.736Z,3.15
2022-09-09T21:51:33.895Z,3.20
2022-09-09T21:54:02.418Z,4.35
2022-09-09T21:56:30.511Z,3.53
2022-09-09T21:59:04.059Z,2.95
2022-09-09T22:01:35.694Z,3.53
2022-09-09T22:04:04.134Z,3.05
2022-09-09T22:06:33.403Z,3.25
2022-09-09T22:09:03.589Z,3.05
2022-09-09T22:11:31.800Z,2.65
2022-09-09T22:14:01.147Z,2.70
2022-09-09T22:16:29.422Z,2.75
2022-09-09T22:18:59.462Z,3.00
2022-09-09T22:21:29.855Z,3.20
2022-09-09T22:24:00.780Z,3.47
2022-09-09T22:26:32.815Z,3.13
2022-09-09T22:29:01.536Z,3.45
2022-09-09T22:31:29.710Z,3.25
2022-09-09T22:33:57.980Z,3.20
2022-09-09T22:36:26.521Z,3.28
2022-09-09T22:38:55.950Z,3.35
2022-09-09T22:41:25.091Z,3.22
2022-09-09T22:43:53.643Z,3.17
2022-09-09T22:46:23.718Z,3.00
2022-09-09T22:48:51.885Z,2.42
2022-09-09T22:51:19.913Z,2.85
2022-09-09T22:53:48.099Z,3.10
2022-09-09T22:56:18.723Z,2.45
2022-09-09T22:58:47.948Z,2.78
2022-09-09T23:01:19.270Z,2.60
2022-09-09T23:03:49.067Z,3.00
2022-09-09T23:06:22.835Z,2.38
2022-09-09T23:08:56.633Z,2.83
2022-09-09T23:11:31.089Z,2.72
2022-09-09T23:14:02.157Z,3.42
2022-09-09T23:16:38.380Z,3.10
2022-09-09T23:19:12.963Z,3.42
2022-09-09T23:21:42.030Z,3.20
2022-09-09T23:24:13.253Z,3.25
2022-09-09T23:26:43.442Z,4.03
2022-09-09T23:29:16.183Z,4.25
2022-09-09T23:31:46.010Z,4.40
2022-09-09T23:34:14.574Z,4.07
2022-09-09T23:36:43.026Z,4.20
2022-09-09T23:39:13.152Z,3.88
2022-09-09T23:41:41.562Z,3.90
2022-09-09T23:44:12.751Z,4.32
2022-09-09T23:46:41.033Z,3.97
2022-09-09T23:49:09.971Z,3.53
2022-09-09T23:51:38.363Z,4.05
2022-09-09T23:54:06.746Z,3.58
2022-09-09T23:56:37.983Z,3.92
2022-09-09T23:59:07.655Z,4.20
